This is the latest recevied weather packets stored in our database for station/object VY2CRA-4. If no packets are shown the sender has not sent any weather packets the latest 10 day(s).
| Time | Temp. | Humidity | Pressure | Rain* | Wind** | Luminosity | Snow |
|---|---|---|---|---|---|---|---|
| 1777752241 | 21.67° C | 22% | 1008.7 hPa | 0 mm | - | - | - |
| 1777751040 | 21.11° C | 23% | 1008.9 hPa | 0 mm | - | - | - |
| 1777749839 | 21.11° C | 25% | 1008.9 hPa | 0 mm | - | - | - |
| 1777748639 | 20.56° C | 26% | 1009 hPa | 0 mm | - | - | - |
| 1777747437 | 20° C | 26% | 1008.8 hPa | 0 mm | - | - | - |
| 1777746237 | 20° C | 27% | 1009.1 hPa | 0 mm | - | - | - |
| 1777745036 | 19.44° C | 28% | 1009 hPa | 0 mm | - | - | - |
| 1777743836 | 19.44° C | 29% | 1009 hPa | 0 mm | - | - | - |
| 1777741433 | 20° C | 28% | 1009.1 hPa | 0 mm | - | - | - |
| 1777740233 | 20.56° C | 27% | 1009 hPa | 0 mm | - | - | - |
| 1777739032 | 21.11° C | 25% | 1009 hPa | 0 mm | - | - | - |
| 1777737832 | 22.22° C | 24% | 1008.9 hPa | 0 mm | - | - | - |
| 1777736630 | 22.78° C | 22% | 1008.8 hPa | 0 mm | - | - | - |
| 1777735430 | 23.33° C | 22% | 1008.9 hPa | 0 mm | - | - | - |
| 1777734230 | 23.33° C | 22% | 1008.8 hPa | 0 mm | - | - | - |
| 1777733028 | 23.33° C | 22% | 1008.6 hPa | 0 mm | - | - | - |
| 1777731828 | 23.33° C | 23% | 1008.5 hPa | 0 mm | - | - | - |
| 1777729425 | 22.78° C | 25% | 1008.1 hPa | 0 mm | - | - | - |
| 1777728224 | 21.67° C | 27% | 1008.2 hPa | 0 mm | - | - | - |
| 1777727023 | 21.11° C | 30% | 1007.9 hPa | 0 mm | - | - | - |
| 1777725822 | 20.56° C | 34% | 1007.8 hPa | 0 mm | - | - | - |
| 1777723420 | 19.44° C | 38% | 1007.4 hPa | 0 mm | - | - | - |
| 1777722220 | 18.89° C | 43% | 1007.1 hPa | 0 mm | - | - | - |
| 1777721017 | 16.11° C | 51% | 1006.9 hPa | 0 mm | - | - | - |
| 1777719819 | 13.89° C | 55% | 1006.7 hPa | 0 mm | - | - | - |
* Rain since midnight (hover to see other rain measurements)
** Current wind speed in m/s (hover to see current wind gust speed)